createdAt,value
2017-07-29T00:00:44.969Z,16.60
2017-07-29T00:03:11.768Z,16.60
2017-07-29T00:05:37.826Z,16.60
2017-07-29T00:08:03.896Z,16.60
2017-07-29T00:10:29.947Z,16.70
2017-07-29T00:12:56.008Z,16.70
2017-07-29T00:15:22.067Z,16.70
2017-07-29T00:17:48.114Z,16.80
2017-07-29T00:20:14.170Z,16.80
2017-07-29T00:22:40.209Z,16.80
2017-07-29T00:25:06.293Z,16.80
2017-07-29T00:27:32.346Z,16.80
2017-07-29T00:29:58.380Z,16.80
2017-07-29T00:32:24.439Z,16.90
2017-07-29T00:34:50.469Z,16.90
2017-07-29T00:37:16.505Z,17.00
2017-07-29T00:39:49.429Z,17.00
2017-07-29T00:42:15.465Z,17.00
2017-07-29T00:44:41.515Z,17.10
2017-07-29T00:47:08.299Z,17.10
2017-07-29T00:49:34.338Z,17.10
2017-07-29T00:52:00.381Z,17.20
2017-07-29T00:54:26.414Z,17.20
2017-07-29T00:56:52.466Z,17.20
2017-07-29T00:59:19.251Z,17.30
2017-07-29T01:01:45.301Z,17.30
2017-07-29T01:04:12.077Z,17.30
2017-07-29T01:06:45.200Z,17.30
2017-07-29T01:09:18.985Z,17.30
2017-07-29T01:11:45.033Z,17.30
2017-07-29T01:14:11.064Z,17.40
2017-07-29T01:16:37.112Z,17.40
2017-07-29T01:19:03.149Z,17.30
2017-07-29T01:21:29.956Z,17.30
2017-07-29T01:23:56.740Z,17.20
2017-07-29T01:26:22.757Z,17.20
2017-07-29T01:28:48.793Z,17.20
2017-07-29T01:31:14.812Z,17.10
2017-07-29T01:33:41.579Z,17.10
2017-07-29T01:36:08.033Z,17.10
2017-07-29T01:38:34.064Z,17.10
2017-07-29T01:41:00.839Z,17.10
2017-07-29T01:43:26.885Z,17.10
2017-07-29T01:45:52.905Z,17.10
2017-07-29T01:48:19.667Z,16.80
2017-07-29T01:50:45.686Z,16.80
2017-07-29T01:53:11.715Z,16.80
2017-07-29T01:55:37.755Z,16.70
2017-07-29T01:58:04.509Z,16.70
2017-07-29T02:00:30.528Z,16.60
2017-07-29T02:02:56.541Z,16.60
2017-07-29T02:05:22.569Z,16.60
2017-07-29T02:07:48.585Z,16.60
2017-07-29T02:10:14.633Z,16.70
2017-07-29T02:12:41.397Z,16.70
2017-07-29T02:15:07.421Z,16.70
2017-07-29T02:17:33.432Z,16.60
2017-07-29T02:19:59.493Z,16.60
2017-07-29T02:22:26.265Z,16.20
2017-07-29T02:24:52.296Z,16.20
2017-07-29T02:27:18.337Z,16.20
2017-07-29T02:29:44.365Z,16.20
2017-07-29T02:32:10.404Z,16.10
2017-07-29T02:34:36.433Z,16.20
2017-07-29T02:37:02.477Z,16.10
2017-07-29T02:39:28.501Z,16.20
2017-07-29T02:41:54.581Z,16.20
2017-07-29T02:44:21.341Z,16.20
2017-07-29T02:46:47.380Z,16.30
2017-07-29T02:49:13.421Z,16.20
2017-07-29T02:51:40.194Z,16.20
2017-07-29T02:54:06.238Z,16.20
2017-07-29T02:56:32.256Z,16.40
2017-07-29T02:58:58.281Z,16.40
2017-07-29T03:01:24.285Z,16.40
2017-07-29T03:03:50.342Z,16.40
2017-07-29T03:06:16.369Z,16.40
2017-07-29T03:08:42.396Z,16.40
2017-07-29T03:11:09.165Z,16.50
2017-07-29T03:13:35.211Z,16.40
2017-07-29T03:16:01.240Z,16.40
2017-07-29T03:18:27.281Z,16.40
2017-07-29T03:20:53.332Z,16.30
2017-07-29T03:23:19.353Z,16.40
2017-07-29T03:25:45.382Z,16.40
2017-07-29T03:28:12.168Z,16.40
2017-07-29T03:30:38.201Z,16.30
2017-07-29T03:33:04.244Z,16.30
2017-07-29T03:35:30.309Z,16.30
2017-07-29T03:37:56.345Z,16.20
2017-07-29T03:40:23.118Z,16.10
2017-07-29T03:42:49.140Z,16.10
2017-07-29T03:45:15.164Z,16.00
2017-07-29T03:47:41.221Z,16.00
2017-07-29T03:50:07.249Z,15.90
2017-07-29T03:52:33.278Z,15.80
2017-07-29T03:54:59.309Z,15.80
2017-07-29T03:57:25.444Z,15.70
2017-07-29T03:59:51.470Z,15.70
2017-07-29T04:02:17.501Z,15.70
2017-07-29T04:04:43.544Z,15.60
2017-07-29T04:07:10.328Z,15.60
2017-07-29T04:09:36.366Z,15.60
2017-07-29T04:12:02.400Z,15.50
2017-07-29T04:14:29.173Z,15.50
2017-07-29T04:16:55.230Z,15.50
2017-07-29T04:19:22.005Z,15.50
2017-07-29T04:21:48.061Z,15.60
2017-07-29T04:24:21.608Z,15.60
2017-07-29T04:26:47.631Z,15.60
2017-07-29T04:29:13.675Z,15.50
2017-07-29T04:31:39.700Z,15.40
2017-07-29T04:34:12.757Z,15.50
2017-07-29T04:36:39.506Z,15.40
2017-07-29T04:39:05.516Z,15.40
2017-07-29T04:41:31.532Z,15.40
2017-07-29T04:43:57.542Z,15.40
2017-07-29T04:46:23.576Z,15.40
2017-07-29T04:48:49.589Z,15.40
2017-07-29T04:51:15.617Z,15.50
2017-07-29T04:53:41.638Z,15.50
2017-07-29T04:56:07.692Z,15.60
2017-07-29T04:58:33.715Z,15.50
2017-07-29T05:00:59.770Z,15.50
2017-07-29T05:03:25.802Z,15.60
2017-07-29T05:05:51.813Z,15.60
2017-07-29T05:08:17.828Z,15.60
2017-07-29T05:10:43.832Z,15.50
2017-07-29T05:13:09.855Z,15.50
2017-07-29T05:15:35.861Z,15.40
2017-07-29T05:18:01.901Z,15.40
2017-07-29T05:20:27.928Z,15.50
2017-07-29T05:22:54.689Z,15.50
2017-07-29T05:25:20.707Z,15.50
2017-07-29T05:27:46.733Z,15.50
2017-07-29T05:30:12.750Z,15.50
2017-07-29T05:32:38.779Z,15.50
2017-07-29T05:35:04.793Z,15.50
2017-07-29T05:37:30.806Z,15.50
2017-07-29T05:39:56.861Z,15.50
2017-07-29T05:42:22.878Z,15.50
2017-07-29T05:44:48.935Z,15.50
2017-07-29T05:47:15.695Z,15.50
2017-07-29T05:49:41.708Z,15.50
2017-07-29T05:52:07.745Z,15.50
2017-07-29T05:54:33.792Z,15.40
2017-07-29T05:57:00.543Z,15.50
2017-07-29T05:59:26.551Z,15.50
2017-07-29T06:01:52.586Z,15.60
2017-07-29T06:04:18.632Z,15.50
2017-07-29T06:06:44.648Z,15.50
2017-07-29T06:09:10.656Z,15.50
2017-07-29T06:11:36.668Z,15.50
2017-07-29T06:14:02.677Z,15.50
2017-07-29T06:16:28.714Z,15.60
2017-07-29T06:18:54.720Z,15.60
2017-07-29T06:21:20.740Z,15.60
2017-07-29T06:23:46.764Z,15.60
2017-07-29T06:26:12.777Z,15.50
2017-07-29T06:28:38.796Z,15.60
2017-07-29T06:31:04.827Z,15.60
2017-07-29T06:33:31.581Z,15.60
2017-07-29T06:35:57.579Z,15.60
2017-07-29T06:38:23.597Z,15.70
2017-07-29T06:40:49.620Z,15.70
2017-07-29T06:43:15.645Z,15.80
2017-07-29T06:45:41.657Z,15.70
2017-07-29T06:48:07.661Z,15.70
2017-07-29T06:50:33.676Z,15.70
2017-07-29T06:52:59.700Z,15.70
2017-07-29T06:55:25.761Z,15.80
2017-07-29T06:57:51.823Z,15.80
2017-07-29T07:00:18.608Z,15.90
2017-07-29T07:02:44.697Z,15.90
2017-07-29T07:05:10.730Z,15.90
2017-07-29T07:07:38.136Z,16.00
2017-07-29T07:10:04.156Z,16.00
2017-07-29T07:12:30.168Z,16.00
2017-07-29T07:14:56.172Z,16.00
2017-07-29T07:17:22.204Z,16.10
2017-07-29T07:19:48.240Z,16.10
2017-07-29T07:22:14.271Z,16.10
2017-07-29T07:24:41.061Z,16.10
2017-07-29T07:27:07.089Z,16.10
2017-07-29T07:29:33.117Z,16.10
2017-07-29T07:31:59.881Z,16.20
2017-07-29T07:34:25.900Z,16.20
2017-07-29T07:36:51.996Z,16.30
2017-07-29T07:39:18.033Z,16.30
2017-07-29T07:41:44.117Z,16.40
2017-07-29T07:44:10.164Z,16.50
2017-07-29T07:46:36.244Z,16.60
2017-07-29T07:49:02.297Z,16.70
2017-07-29T07:51:28.343Z,16.70
2017-07-29T07:53:54.388Z,16.70
2017-07-29T07:56:20.421Z,16.80
2017-07-29T07:58:47.209Z,17.00
2017-07-29T08:01:13.226Z,17.00
2017-07-29T08:03:39.253Z,17.00
2017-07-29T08:06:05.285Z,17.00
2017-07-29T08:08:31.328Z,16.90
2017-07-29T08:10:57.353Z,16.80
2017-07-29T08:13:23.376Z,16.70
2017-07-29T08:15:49.426Z,16.60
2017-07-29T08:18:15.497Z,16.60
2017-07-29T08:20:41.539Z,16.50
2017-07-29T08:23:08.281Z,16.40
2017-07-29T08:25:34.305Z,16.40
2017-07-29T08:28:00.325Z,16.40
2017-07-29T08:30:26.349Z,16.50
2017-07-29T08:32:52.371Z,16.50
2017-07-29T08:35:19.135Z,16.40
2017-07-29T08:37:45.152Z,16.40
2017-07-29T08:40:11.170Z,16.40
2017-07-29T08:42:37.225Z,16.40
2017-07-29T08:45:03.289Z,16.30
2017-07-29T08:47:29.313Z,16.30
2017-07-29T08:49:55.353Z,16.30
2017-07-29T08:52:21.417Z,16.40
2017-07-29T08:54:47.469Z,16.50
2017-07-29T08:57:13.583Z,16.50
2017-07-29T08:59:39.644Z,16.60
2017-07-29T09:02:05.733Z,16.50
2017-07-29T09:04:31.777Z,16.50
2017-07-29T09:06:57.810Z,16.50
2017-07-29T09:09:23.828Z,16.60
2017-07-29T09:11:49.853Z,16.70
2017-07-29T09:14:16.610Z,16.80
2017-07-29T09:16:42.649Z,16.80
2017-07-29T09:19:08.684Z,16.80
2017-07-29T09:21:34.708Z,16.80
2017-07-29T09:24:01.478Z,17.00
2017-07-29T09:26:27.512Z,16.90
2017-07-29T09:28:53.561Z,16.90
2017-07-29T09:31:19.594Z,17.00
2017-07-29T09:33:45.633Z,17.10
2017-07-29T09:36:12.425Z,17.20
2017-07-29T09:38:38.482Z,17.20
2017-07-29T09:41:04.550Z,17.30
2017-07-29T09:43:30.585Z,17.40
2017-07-29T09:45:56.620Z,17.40
2017-07-29T09:48:23.397Z,17.60
2017-07-29T09:50:49.445Z,17.60
2017-07-29T09:53:16.217Z,17.70
2017-07-29T09:55:42.269Z,17.80
2017-07-29T09:58:08.307Z,17.80
2017-07-29T10:00:34.417Z,17.90
2017-07-29T10:03:00.517Z,18.00
2017-07-29T10:05:27.280Z,18.10
2017-07-29T10:07:53.308Z,18.00
2017-07-29T10:10:19.349Z,18.10
2017-07-29T10:12:46.139Z,18.30
2017-07-29T10:15:12.180Z,18.30
2017-07-29T10:17:38.220Z,18.50
2017-07-29T10:20:04.955Z,18.80
2017-07-29T10:22:31.025Z,18.70
2017-07-29T10:24:57.054Z,18.70
2017-07-29T10:27:23.832Z,18.60
2017-07-29T10:29:49.868Z,18.60
2017-07-29T10:32:15.906Z,18.60
2017-07-29T10:34:41.952Z,18.60
2017-07-29T10:37:07.989Z,18.50
2017-07-29T10:39:41.000Z,18.60
2017-07-29T10:42:07.025Z,18.80
2017-07-29T10:44:33.057Z,18.90
2017-07-29T10:46:59.092Z,18.80
2017-07-29T10:49:25.140Z,18.80
2017-07-29T10:51:51.181Z,18.80
2017-07-29T10:54:17.213Z,18.90
2017-07-29T10:56:43.239Z,18.90
2017-07-29T10:59:09.317Z,19.00
2017-07-29T11:01:35.345Z,19.10
2017-07-29T11:04:01.383Z,19.10
2017-07-29T11:06:27.416Z,19.10
2017-07-29T11:08:53.536Z,19.10
2017-07-29T11:11:19.568Z,19.00
2017-07-29T11:13:45.601Z,19.10
2017-07-29T11:16:11.665Z,19.10
2017-07-29T11:18:37.761Z,19.20
2017-07-29T11:21:03.838Z,19.20
2017-07-29T11:23:30.612Z,19.10
2017-07-29T11:25:56.648Z,19.10
2017-07-29T11:28:22.686Z,19.20
2017-07-29T11:30:48.749Z,19.20
2017-07-29T11:33:15.374Z,19.30
2017-07-29T11:35:42.079Z,19.50
2017-07-29T11:38:08.716Z,19.60
2017-07-29T11:40:34.761Z,19.70
2017-07-29T11:43:01.575Z,19.70
2017-07-29T11:45:27.597Z,19.70
2017-07-29T11:47:54.376Z,19.70
2017-07-29T11:50:20.418Z,19.70
2017-07-29T11:52:46.441Z,19.80
2017-07-29T11:55:12.465Z,19.80
2017-07-29T11:57:38.487Z,19.80
2017-07-29T12:00:04.528Z,19.80
2017-07-29T12:02:30.553Z,19.90
2017-07-29T12:04:56.584Z,19.90
2017-07-29T12:07:23.374Z,19.90
2017-07-29T12:09:49.425Z,19.90
2017-07-29T12:12:15.465Z,20.00
2017-07-29T13:38:28.562Z,20.60
2017-07-29T13:40:54.596Z,18.50
2017-07-29T13:43:20.620Z,18.40
2017-07-29T13:45:46.669Z,18.20
2017-07-29T13:48:12.704Z,18.10
2017-07-29T13:50:39.489Z,18.10
2017-07-29T13:53:05.505Z,18.10
2017-07-29T13:55:31.549Z,18.00
2017-07-29T13:57:58.325Z,17.90
2017-07-29T14:00:24.379Z,17.90
2017-07-29T14:02:50.420Z,17.80
2017-07-29T14:05:16.453Z,17.80
2017-07-29T14:07:42.505Z,17.80
2017-07-29T14:10:09.283Z,18.10
2017-07-29T14:12:35.329Z,18.00
2017-07-29T14:15:01.356Z,18.20
2017-07-29T14:17:28.127Z,18.50
2017-07-29T14:19:54.181Z,18.40
2017-07-29T14:22:20.957Z,18.70
2017-07-29T14:24:46.996Z,18.60
2017-07-29T14:27:13.016Z,18.60
2017-07-29T14:29:39.041Z,18.60
2017-07-29T14:32:05.061Z,18.60
2017-07-29T14:34:31.093Z,18.50
2017-07-29T14:36:57.115Z,18.40
2017-07-29T14:39:23.176Z,18.30
2017-07-29T14:41:49.197Z,18.30
2017-07-29T14:44:15.236Z,18.30
2017-07-29T14:46:41.290Z,18.40
2017-07-29T14:49:07.330Z,18.70
2017-07-29T14:51:33.363Z,19.10
2017-07-29T14:53:59.386Z,19.50
2017-07-29T14:56:25.421Z,19.80
2017-07-29T14:58:51.464Z,20.00
2017-07-29T15:16:04.357Z,20.40
2017-07-29T15:18:30.395Z,24.70
2017-07-29T15:20:56.441Z,24.80
2017-07-29T15:23:22.464Z,25.20
2017-07-29T15:30:44.866Z,25.40
2017-07-29T15:33:10.931Z,26.80
2017-07-29T15:35:36.993Z,26.80
2017-07-29T15:38:03.090Z,27.10
2017-07-29T15:40:29.135Z,26.90
2017-07-29T15:42:55.188Z,26.50
2017-07-29T15:45:21.241Z,26.20
2017-07-29T15:47:47.327Z,26.00
2017-07-29T15:50:13.361Z,26.10
2017-07-29T15:52:39.393Z,26.20
2017-07-29T15:55:06.180Z,26.60
2017-07-29T15:57:32.234Z,26.60
2017-07-29T15:59:58.997Z,26.50
2017-07-29T16:02:25.021Z,26.50
2017-07-29T16:04:51.048Z,27.30
2017-07-29T16:07:17.129Z,27.70
2017-07-29T16:09:43.173Z,27.50
2017-07-29T16:12:09.209Z,27.60
2017-07-29T16:14:35.989Z,26.80
2017-07-29T16:17:02.016Z,26.80
2017-07-29T16:19:28.029Z,27.30
2017-07-29T16:21:54.049Z,27.70
2017-07-29T16:24:20.818Z,27.30
2017-07-29T16:26:46.885Z,27.30
2017-07-29T16:29:13.624Z,26.60
2017-07-29T16:31:39.648Z,26.50
2017-07-29T16:34:05.661Z,26.90
2017-07-29T16:36:31.700Z,26.60
2017-07-29T16:38:57.720Z,26.40
2017-07-29T16:41:23.745Z,26.10
2017-07-29T16:43:50.508Z,26.30
2017-07-29T16:46:16.516Z,26.20
2017-07-29T16:48:42.532Z,26.10
2017-07-29T16:51:08.531Z,25.30
2017-07-29T16:53:34.556Z,24.60
2017-07-29T16:56:00.564Z,24.10
2017-07-29T16:58:26.605Z,23.80
2017-07-29T17:00:52.612Z,23.60
2017-07-29T17:03:18.632Z,23.10
2017-07-29T17:05:45.397Z,22.70
2017-07-29T17:08:11.400Z,22.70
2017-07-29T17:10:37.440Z,22.50
2017-07-29T17:13:03.471Z,22.10
2017-07-29T17:15:29.537Z,22.00
2017-07-29T17:17:55.561Z,21.90
2017-07-29T17:20:21.713Z,21.80
2017-07-29T17:22:48.548Z,21.60
2017-07-29T17:25:14.618Z,21.60
2017-07-29T17:27:40.648Z,21.50
2017-07-29T17:30:06.681Z,21.30
2017-07-29T17:32:33.464Z,21.30
2017-07-29T17:34:59.501Z,21.30
2017-07-29T17:37:26.271Z,21.30
2017-07-29T17:39:52.286Z,21.30
2017-07-29T17:42:18.333Z,21.30
2017-07-29T17:44:44.357Z,21.20
2017-07-29T17:47:10.396Z,21.10
2017-07-29T17:49:36.405Z,21.20
2017-07-29T17:52:02.432Z,21.10
2017-07-29T17:54:28.482Z,21.10
2017-07-29T17:56:54.506Z,21.10
2017-07-29T17:59:20.548Z,21.00
2017-07-29T18:01:46.576Z,20.80
2017-07-29T18:04:12.614Z,20.80
2017-07-29T18:06:38.639Z,20.70
2017-07-29T18:09:05.408Z,20.60
2017-07-29T18:11:31.428Z,20.60
2017-07-29T18:13:57.460Z,20.60
2017-07-29T18:16:23.480Z,20.50
2017-07-29T18:18:49.509Z,20.50
2017-07-29T18:21:15.550Z,20.50
2017-07-29T18:23:41.640Z,20.50
2017-07-29T18:26:07.681Z,20.40
2017-07-29T18:28:33.728Z,20.40
2017-07-29T18:31:00.497Z,20.40
2017-07-29T18:33:26.520Z,20.30
2017-07-29T18:35:52.557Z,20.30
2017-07-29T18:38:19.448Z,20.30
2017-07-29T18:40:45.489Z,20.30
2017-07-29T18:43:11.536Z,20.30
2017-07-29T18:45:37.588Z,20.30
2017-07-29T18:48:03.626Z,20.30
2017-07-29T18:50:29.661Z,20.40
2017-07-29T18:52:55.697Z,20.40
2017-07-29T18:55:21.756Z,20.40
2017-07-29T18:57:47.788Z,20.30
2017-07-29T19:00:13.831Z,20.30
2017-07-29T19:02:39.878Z,20.30
2017-07-29T19:05:05.897Z,20.30
2017-07-29T19:07:31.956Z,20.30
2017-07-29T19:09:57.988Z,20.30
2017-07-29T19:12:24.017Z,20.30
2017-07-29T19:15:05.020Z,20.30
2017-07-29T19:17:31.058Z,20.20
2017-07-29T19:19:57.088Z,20.10
2017-07-29T19:22:23.872Z,20.20
2017-07-29T19:24:49.908Z,20.10
2017-07-29T19:27:15.928Z,20.10
2017-07-29T19:29:41.975Z,20.10
2017-07-29T19:32:08.020Z,20.10
2017-07-29T19:34:34.058Z,20.10
2017-07-29T19:37:00.184Z,20.10
